createdAt,value
2023-08-15T00:00:32.487Z,101049.63
2023-08-15T00:02:59.330Z,101054.16
2023-08-15T00:05:25.978Z,101047.88
2023-08-15T00:07:52.575Z,101048.75
2023-08-15T00:10:19.166Z,101058.69
2023-08-15T00:12:45.788Z,101055.31
2023-08-15T00:15:12.431Z,101057.13
2023-08-15T00:17:39.111Z,101051.72
2023-08-15T00:20:07.096Z,101049.97
2023-08-15T00:22:33.690Z,101049.97
2023-08-15T00:25:00.332Z,101046.53
2023-08-15T00:27:26.949Z,101044.69
2023-08-15T00:29:53.549Z,101041.22
2023-08-15T00:32:20.152Z,101026.13
2023-08-15T00:34:46.718Z,101035.50
2023-08-15T00:37:13.312Z,101039.06
2023-08-15T00:39:42.089Z,101028.47
2023-08-15T00:42:08.925Z,101034.84
2023-08-15T00:44:35.557Z,101030.31
2023-08-15T00:47:02.103Z,101026.72
2023-08-15T00:49:28.930Z,101025.84
2023-08-15T00:51:55.544Z,101026.91
2023-08-15T00:54:22.107Z,101025.16
2023-08-15T00:56:48.677Z,101024.38
2023-08-15T00:59:15.450Z,101026.31
2023-08-15T01:01:42.019Z,101026.31
2023-08-15T01:04:08.654Z,101022.09
2023-08-15T01:06:35.261Z,101029.41
2023-08-15T01:09:01.857Z,101031.34
2023-08-15T01:11:31.314Z,101019.66
2023-08-15T01:13:59.786Z,101009.88
2023-08-15T01:16:27.219Z,101009.13
2023-08-15T01:18:58.231Z,101004.59
2023-08-15T01:21:29.324Z,101013.47
2023-08-15T01:23:55.969Z,101015.56
2023-08-15T01:26:22.588Z,101014.69
2023-08-15T01:28:49.176Z,101009.28
2023-08-15T01:31:21.581Z,101006.84
2023-08-15T01:34:06.019Z,101008.03
2023-08-15T01:36:39.838Z,101015.38
2023-08-15T01:39:06.992Z,101011.78
2023-08-15T01:41:34.195Z,101021.66
2023-08-15T01:44:01.294Z,101018.94
2023-08-15T01:46:27.879Z,101013.72
2023-08-15T01:48:54.475Z,101011.00
2023-08-15T01:51:21.056Z,101020.00
2023-08-15T01:53:47.657Z,101016.06
2023-08-15T01:56:14.394Z,101010.91
2023-08-15T01:58:41.014Z,101013.91
2023-08-15T02:01:07.636Z,101010.44
2023-08-15T02:03:34.232Z,101005.31
2023-08-15T02:06:00.932Z,101012.53
2023-08-15T02:08:27.535Z,101007.31
2023-08-15T02:10:54.220Z,101010.03
2023-08-15T02:13:20.972Z,101007.41
2023-08-15T02:15:47.582Z,101009.28
2023-08-15T02:18:14.271Z,101008.19
2023-08-15T02:20:41.027Z,101008.19
2023-08-15T02:23:07.642Z,100998.25
2023-08-15T02:25:34.209Z,100999.31
2023-08-15T02:28:00.852Z,100995.16
2023-08-15T02:30:27.444Z,100995.06
2023-08-15T02:32:54.096Z,100991.75
2023-08-15T02:35:20.721Z,100992.72
2023-08-15T02:37:47.290Z,100988.19
2023-08-15T02:40:13.974Z,100975.63
2023-08-15T02:42:40.574Z,100966.78
2023-08-15T02:45:07.750Z,100967.53
2023-08-15T02:47:34.377Z,100971.31
2023-08-15T02:50:01.055Z,100971.97
2023-08-15T02:52:27.710Z,100961.47
2023-08-15T02:54:54.292Z,100970.91
2023-08-15T02:57:21.127Z,100964.66
2023-08-15T02:59:47.901Z,100955.75
2023-08-15T03:02:14.509Z,100966.69
2023-08-15T03:04:41.157Z,100957.91
2023-08-15T03:07:07.757Z,100964.16
2023-08-15T03:09:34.342Z,100973.06
2023-08-15T03:12:00.935Z,100972.38
2023-08-15T03:14:30.589Z,100971.50
2023-08-15T03:16:57.298Z,100969.66
2023-08-15T03:19:23.876Z,100973.16
2023-08-15T03:21:50.450Z,100974.03
2023-08-15T03:24:17.090Z,100971.22
2023-08-15T03:26:43.677Z,100979.22
2023-08-15T03:29:10.273Z,100984.44
2023-08-15T03:31:36.883Z,100992.47
2023-08-15T03:34:03.547Z,100994.19
2023-08-15T03:36:30.148Z,100995.84
2023-08-15T03:38:56.770Z,101000.16
2023-08-15T03:41:23.390Z,101006.19
2023-08-15T03:43:50.039Z,101008.72
2023-08-15T03:46:16.674Z,101002.22
2023-08-15T03:48:43.312Z,100989.38
2023-08-15T03:51:12.807Z,100990.06
2023-08-15T03:53:39.639Z,100975.19
2023-08-15T03:56:06.248Z,100989.09
2023-08-15T03:58:32.824Z,100989.09
2023-08-15T04:00:59.425Z,100996.25
2023-08-15T04:03:26.125Z,101003.50
2023-08-15T04:05:52.678Z,101008.31
2023-08-15T04:08:19.246Z,101008.50
2023-08-15T04:10:46.667Z,100998.38
2023-08-15T04:13:13.429Z,100996.44
2023-08-15T04:15:40.123Z,100975.69
2023-08-15T04:18:08.287Z,100976.47
2023-08-15T04:20:41.669Z,100969.22
2023-08-15T04:23:08.417Z,100963.59
2023-08-15T04:25:35.400Z,100966.28
2023-08-15T04:28:02.360Z,100971.72
2023-08-15T04:30:30.115Z,100971.72
2023-08-15T04:32:56.884Z,100968.25
2023-08-15T04:35:23.533Z,100961.84
2023-08-15T04:37:50.186Z,100966.50
2023-08-15T04:40:21.551Z,100973.53
2023-08-15T04:42:48.161Z,100980.69
2023-08-15T04:45:14.800Z,100975.28
2023-08-15T04:47:41.416Z,100979.81
2023-08-15T04:50:08.571Z,100984.19
2023-08-15T04:52:35.184Z,100990.31
2023-08-15T04:55:01.761Z,100997.25
2023-08-15T04:57:28.351Z,100999.47
2023-08-15T04:59:54.925Z,100995.59
2023-08-15T05:02:21.517Z,100998.78
2023-08-15T05:04:48.100Z,100985.91
2023-08-15T05:07:14.677Z,100983.50
2023-08-15T05:09:41.368Z,100976.63
2023-08-15T05:12:08.597Z,100980.56
2023-08-15T05:14:35.196Z,100967.72
2023-08-15T05:17:01.772Z,100991.81
2023-08-15T05:19:28.380Z,100990.91
2023-08-15T05:21:54.976Z,100992.72
2023-08-15T05:24:21.664Z,101001.66
2023-08-15T05:26:48.248Z,101007.22
2023-08-15T05:29:14.834Z,101017.22
2023-08-15T05:31:41.489Z,101019.19
2023-08-15T05:34:10.176Z,101036.91
2023-08-15T05:36:37.926Z,101041.31
2023-08-15T05:39:04.543Z,101038.59
2023-08-15T05:41:31.900Z,101030.22
2023-08-15T05:43:58.508Z,101031.41
2023-08-15T05:46:25.106Z,101038.06
2023-08-15T05:48:51.730Z,101043.03
2023-08-15T05:51:18.326Z,101038.25
2023-08-15T05:53:44.898Z,101039.53
2023-08-15T05:56:11.513Z,101039.94
2023-08-15T05:58:38.093Z,101039.72
2023-08-15T06:01:04.719Z,101042.44
2023-08-15T06:03:49.620Z,101036.25
2023-08-15T06:06:17.888Z,101032.91
2023-08-15T06:08:44.448Z,101027.91
2023-08-15T06:11:11.000Z,101036.81
2023-08-15T06:13:37.610Z,101043.34
2023-08-15T06:16:04.332Z,101046.03
2023-08-15T06:18:30.925Z,101048.56
2023-08-15T06:20:57.667Z,101043.13
2023-08-15T06:23:24.265Z,101039.63
2023-08-15T06:25:50.886Z,101034.75
2023-08-15T06:28:17.506Z,101047.88
2023-08-15T06:30:44.060Z,101043.78
2023-08-15T06:33:10.729Z,101048.97
2023-08-15T06:35:37.318Z,101040.50
2023-08-15T06:38:04.072Z,101025.59
2023-08-15T06:40:31.701Z,101025.91
2023-08-15T06:42:58.312Z,101034.56
2023-08-15T06:45:24.945Z,101043.00
2023-08-15T06:47:51.586Z,101049.47
2023-08-15T06:50:18.704Z,101051.38
2023-08-15T06:52:45.324Z,101040.84
2023-08-15T06:55:11.850Z,101038.72
2023-08-15T06:57:38.428Z,101046.66
2023-08-15T07:00:05.636Z,101053.06
2023-08-15T07:02:32.345Z,101056.00
2023-08-15T07:04:59.005Z,101061.81
2023-08-15T07:07:25.607Z,101061.28
2023-08-15T07:09:52.277Z,101065.84
2023-08-15T07:12:19.065Z,101070.19
2023-08-15T07:14:46.307Z,101075.53
2023-08-15T07:17:12.983Z,101072.47
2023-08-15T07:19:39.599Z,101077.53
2023-08-15T07:22:06.271Z,101069.38
2023-08-15T07:24:32.897Z,101074.06
2023-08-15T07:26:59.530Z,101077.78
2023-08-15T07:29:26.100Z,101083.19
2023-08-15T07:31:52.729Z,101091.84
2023-08-15T07:34:19.442Z,101103.28
2023-08-15T07:36:46.114Z,101116.78
2023-08-15T07:39:12.704Z,101127.50
2023-08-15T07:41:40.713Z,101133.81
2023-08-15T07:44:07.310Z,101129.50
2023-08-15T07:46:33.891Z,101127.00
2023-08-15T07:49:01.191Z,101125.59
2023-08-15T07:51:27.950Z,101142.13
2023-08-15T07:53:54.564Z,101157.78
2023-08-15T07:56:21.174Z,101171.28
2023-08-15T07:58:47.770Z,101185.84
2023-08-15T08:01:14.424Z,101194.31
2023-08-15T08:03:41.077Z,101193.69
2023-08-15T08:06:12.389Z,101183.47
2023-08-15T08:08:47.876Z,101186.63
2023-08-15T08:11:14.695Z,101180.22
2023-08-15T08:13:41.277Z,101165.00
2023-08-15T08:16:07.937Z,101170.00
2023-08-15T08:18:34.598Z,101170.63
2023-08-15T08:21:01.886Z,101177.69
2023-08-15T08:23:28.486Z,101170.19
2023-08-15T08:25:55.104Z,101155.09
2023-08-15T08:28:21.684Z,101164.41
2023-08-15T08:30:48.460Z,101179.06
2023-08-15T08:33:15.037Z,101196.56
2023-08-15T08:35:41.620Z,101185.91
2023-08-15T08:38:08.309Z,101177.97
2023-08-15T08:40:34.914Z,101169.19
2023-08-15T08:43:01.645Z,101172.13
2023-08-15T08:45:28.428Z,101170.38
2023-08-15T08:47:55.104Z,101173.19
2023-08-15T08:50:21.783Z,101190.25
2023-08-15T08:52:48.341Z,101182.88
2023-08-15T08:55:15.006Z,101163.19
2023-08-15T08:57:41.631Z,101158.53
2023-08-15T09:00:08.891Z,101184.28
2023-08-15T09:02:35.627Z,101194.72
2023-08-15T09:05:04.998Z,101192.53
2023-08-15T09:07:32.762Z,101171.38
2023-08-15T09:09:59.385Z,101173.25
2023-08-15T09:12:41.490Z,101188.03
2023-08-15T09:15:08.754Z,101185.44
2023-08-15T09:17:35.462Z,101170.38
2023-08-15T09:20:14.706Z,101153.69
2023-08-15T09:22:47.431Z,101148.44
2023-08-15T09:25:14.675Z,101163.09
2023-08-15T09:27:41.292Z,101170.09
2023-08-15T09:30:11.930Z,101150.25
2023-08-15T09:32:40.077Z,101167.00
2023-08-15T09:35:08.588Z,101167.72
2023-08-15T09:37:35.252Z,101172.28
2023-08-15T09:40:01.963Z,101173.47
2023-08-15T09:42:31.441Z,101177.97
2023-08-15T09:44:58.023Z,101175.41
2023-08-15T09:47:24.869Z,101164.00
2023-08-15T09:49:52.827Z,101161.19
2023-08-15T09:52:19.449Z,101161.66
2023-08-15T09:54:46.021Z,101164.34
2023-08-15T09:57:12.637Z,101165.53
2023-08-15T09:59:39.302Z,101169.66
2023-08-15T10:02:05.996Z,101166.97
2023-08-15T10:04:32.880Z,101168.34
2023-08-15T10:06:59.453Z,101160.31
2023-08-15T10:09:26.746Z,101167.88
2023-08-15T10:11:53.388Z,101158.50
2023-08-15T10:14:20.026Z,101156.72
2023-08-15T10:16:46.692Z,101162.97
2023-08-15T10:19:15.487Z,101168.06
2023-08-15T10:21:52.500Z,101168.47
2023-08-15T10:24:19.317Z,101175.72
2023-08-15T10:26:46.619Z,101179.31
2023-08-15T10:29:13.624Z,101178.94
2023-08-15T10:31:41.266Z,101182.56
2023-08-15T10:34:11.475Z,101184.22
2023-08-15T10:36:41.258Z,101184.34
2023-08-15T10:39:08.099Z,101192.03
2023-08-15T10:41:35.446Z,101192.41
2023-08-15T10:44:03.037Z,101196.22
2023-08-15T10:46:30.683Z,101201.03
2023-08-15T10:49:12.441Z,101207.25
2023-08-15T10:51:40.209Z,101199.84
2023-08-15T10:54:08.995Z,101198.84
2023-08-15T10:56:39.297Z,101196.09
2023-08-15T10:59:13.119Z,101187.97
2023-08-15T11:01:41.794Z,101198.50
2023-08-15T11:04:10.985Z,101194.31
2023-08-15T11:07:04.004Z,101206.22
2023-08-15T11:09:30.698Z,101196.56
2023-08-15T11:12:07.771Z,101187.50
2023-08-15T11:14:34.385Z,101194.94
2023-08-15T11:17:00.994Z,101202.03
2023-08-15T11:19:27.775Z,101188.16
2023-08-15T11:21:54.393Z,101199.47
2023-08-15T11:24:21.002Z,101198.25
2023-08-15T11:26:47.649Z,101197.91
2023-08-15T11:29:15.232Z,101199.31
2023-08-15T11:31:42.472Z,101213.50
2023-08-15T11:34:09.521Z,101196.44
2023-08-15T11:36:37.075Z,101208.66
2023-08-15T11:39:03.861Z,101221.13
2023-08-15T11:41:32.034Z,101221.63
2023-08-15T11:44:00.002Z,101218.41
2023-08-15T11:46:31.107Z,101225.63
2023-08-15T11:49:03.354Z,101233.78
2023-08-15T11:51:30.050Z,101235.59
2023-08-15T11:53:56.624Z,101230.25
2023-08-15T11:56:23.370Z,101226.28
2023-08-15T11:58:50.046Z,101240.00
2023-08-15T12:01:16.824Z,101230.81
2023-08-15T12:03:43.508Z,101228.63
2023-08-15T12:06:11.151Z,101234.25
2023-08-15T12:08:39.427Z,101227.03
2023-08-15T12:11:07.845Z,101226.09
2023-08-15T12:13:41.441Z,101237.88
2023-08-15T12:16:09.609Z,101236.63
2023-08-15T12:18:36.370Z,101244.19
2023-08-15T12:21:03.325Z,101248.03
2023-08-15T12:23:30.068Z,101259.81
2023-08-15T12:25:56.840Z,101258.22
2023-08-15T12:28:23.545Z,101260.56
2023-08-15T12:30:50.371Z,101257.00
2023-08-15T12:33:27.562Z,101262.28
2023-08-15T12:36:03.742Z,101260.16
2023-08-15T12:38:30.453Z,101263.06
2023-08-15T12:40:57.062Z,101271.19
2023-08-15T12:43:23.787Z,101267.78
2023-08-15T12:45:50.538Z,101263.03
2023-08-15T12:48:17.316Z,101263.41
2023-08-15T12:50:43.904Z,101265.59
2023-08-15T12:53:10.577Z,101257.84
2023-08-15T12:55:37.250Z,101253.84
2023-08-15T12:58:04.241Z,101268.41
2023-08-15T13:00:31.163Z,101270.38
2023-08-15T13:02:58.087Z,101263.44
2023-08-15T13:05:24.808Z,101269.78
2023-08-15T13:07:51.481Z,101268.50
2023-08-15T13:10:18.144Z,101267.81
2023-08-15T13:12:44.784Z,101274.31
2023-08-15T13:15:11.492Z,101267.50
2023-08-15T13:17:38.181Z,101272.72
2023-08-15T13:20:05.270Z,101281.25
2023-08-15T13:22:31.839Z,101279.59
2023-08-15T13:24:58.474Z,101285.97
2023-08-15T13:27:25.144Z,101276.66
2023-08-15T13:29:51.912Z,101280.47
2023-08-15T13:32:18.568Z,101283.97
2023-08-15T13:34:45.198Z,101294.06
2023-08-15T13:37:11.836Z,101301.53
2023-08-15T13:39:38.448Z,101294.00
2023-08-15T13:42:05.231Z,101298.59
2023-08-15T13:44:31.840Z,101297.06
2023-08-15T13:46:58.444Z,101299.13
2023-08-15T13:49:25.116Z,101303.00
2023-08-15T13:51:51.732Z,101310.53
2023-08-15T13:54:18.314Z,101309.34
2023-08-15T13:56:44.872Z,101313.66
2023-08-15T13:59:11.434Z,101306.41
2023-08-15T14:01:38.081Z,101310.31
2023-08-15T14:04:04.997Z,101313.06
2023-08-15T14:06:31.594Z,101311.53
2023-08-15T14:08:58.374Z,101318.28
2023-08-15T14:11:24.967Z,101325.53
2023-08-15T14:13:51.597Z,101320.06
2023-08-15T14:16:18.261Z,101318.84
2023-08-15T14:18:45.054Z,101322.22
2023-08-15T14:21:14.428Z,101314.25
2023-08-15T14:23:42.342Z,101333.84
2023-08-15T14:26:08.946Z,101320.47
2023-08-15T14:28:35.587Z,101326.53
2023-08-15T14:31:05.917Z,101331.75
2023-08-15T14:33:32.653Z,101328.34
2023-08-15T14:35:59.290Z,101332.94
2023-08-15T14:38:25.865Z,101326.84
2023-08-15T14:40:52.970Z,101325.13
2023-08-15T14:43:19.519Z,101326.09
2023-08-15T14:45:46.118Z,101327.84
2023-08-15T14:48:12.721Z,101332.41
2023-08-15T14:50:39.342Z,101331.28
2023-08-15T14:53:05.996Z,101331.16
2023-08-15T14:55:33.190Z,101335.72
2023-08-15T14:57:59.941Z,101333.38
2023-08-15T15:00:26.627Z,101330.91
2023-08-15T15:02:53.267Z,101322.91
2023-08-15T15:05:19.932Z,101339.19
2023-08-15T15:07:46.483Z,101332.41
2023-08-15T15:10:13.083Z,101336.88
2023-08-15T15:12:40.069Z,101343.41
2023-08-15T15:15:07.596Z,101345.31
2023-08-15T15:17:34.205Z,101350.97
2023-08-15T15:20:00.968Z,101350.47
2023-08-15T15:22:27.614Z,101349.72
2023-08-15T15:24:54.256Z,101338.34
2023-08-15T15:27:20.854Z,101342.59
2023-08-15T15:29:47.419Z,101333.53
2023-08-15T15:32:14.007Z,101338.50
2023-08-15T15:34:40.609Z,101342.84
2023-08-15T15:37:07.263Z,101346.50
2023-08-15T15:39:33.932Z,101341.09
2023-08-15T15:42:00.639Z,101348.41
2023-08-15T15:44:27.967Z,101347.88
2023-08-15T15:46:55.809Z,101352.34
2023-08-15T15:49:23.144Z,101338.22
2023-08-15T15:51:49.714Z,101335.09
2023-08-15T15:54:16.273Z,101333.50
2023-08-15T15:56:42.936Z,101327.53
2023-08-15T15:59:09.631Z,101327.34
2023-08-15T16:01:36.277Z,101328.22
2023-08-15T16:04:03.365Z,101327.63
2023-08-15T16:06:29.993Z,101319.84
2023-08-15T16:08:56.590Z,101317.16
2023-08-15T16:11:23.199Z,101318.31
2023-08-15T16:13:49.865Z,101323.31
2023-08-15T16:16:16.482Z,101319.25
2023-08-15T16:18:43.714Z,101321.63
2023-08-15T16:21:10.272Z,101319.25
2023-08-15T16:23:36.938Z,101319.25
2023-08-15T16:26:03.544Z,101328.06
2023-08-15T16:28:30.134Z,101321.22
2023-08-15T16:30:56.750Z,101330.16
2023-08-15T16:33:23.331Z,101331.66
2023-08-15T16:35:49.922Z,101331.53
2023-08-15T16:38:16.559Z,101339.69
2023-08-15T16:40:43.327Z,101330.50
2023-08-15T16:43:10.562Z,101330.50
2023-08-15T16:45:38.296Z,101340.88
2023-08-15T16:48:05.179Z,101342.91
2023-08-15T16:50:31.885Z,101344.06
2023-08-15T16:53:00.642Z,101350.72
2023-08-15T16:55:27.822Z,101355.19
2023-08-15T16:57:54.422Z,101356.06
2023-08-15T17:00:21.044Z,101360.00
2023-08-15T17:02:47.782Z,101364.84
2023-08-15T17:05:14.587Z,101362.56
2023-08-15T17:07:41.186Z,101368.13
2023-08-15T17:10:08.159Z,101380.13
2023-08-15T17:12:34.816Z,101387.31
2023-08-15T17:15:01.501Z,101388.44
2023-08-15T17:17:28.094Z,101391.50
2023-08-15T17:19:54.844Z,101388.91
2023-08-15T17:22:21.622Z,101388.50
2023-08-15T17:24:48.443Z,101388.84
2023-08-15T17:27:15.122Z,101391.69
2023-08-15T17:29:41.746Z,101392.66
2023-08-15T17:32:08.394Z,101386.59
2023-08-15T17:34:35.503Z,101393.16
2023-08-15T17:37:02.501Z,101386.31
2023-08-15T17:39:29.238Z,101391.41
2023-08-15T17:41:56.269Z,101385.88
2023-08-15T17:44:23.282Z,101399.28
2023-08-15T17:46:50.423Z,101409.75
2023-08-15T17:49:17.605Z,101405.53
2023-08-15T17:51:44.431Z,101412.06
2023-08-15T17:54:11.021Z,101414.88
2023-08-15T17:56:37.603Z,101422.28
2023-08-15T17:59:04.301Z,101417.28
2023-08-15T18:01:30.938Z,101408.56
2023-08-15T18:03:57.724Z,101404.34
2023-08-15T18:06:24.397Z,101408.28
2023-08-15T18:08:51.168Z,101411.09
2023-08-15T18:11:17.762Z,101420.25
2023-08-15T18:13:44.338Z,101427.69
2023-08-15T18:16:11.033Z,101432.47
2023-08-15T18:18:37.669Z,101432.56
2023-08-15T18:21:04.334Z,101438.22
2023-08-15T18:23:30.949Z,101445.88
2023-08-15T18:25:57.647Z,101451.53
2023-08-15T18:28:24.300Z,101457.31
2023-08-15T18:30:50.872Z,101456.84
2023-08-15T18:33:17.597Z,101461.44
2023-08-15T18:35:44.256Z,101466.09
2023-08-15T18:38:10.853Z,101466.25
2023-08-15T18:40:39.401Z,101472.97
2023-08-15T18:43:08.188Z,101485.03
2023-08-15T18:45:34.775Z,101482.03
2023-08-15T18:48:01.417Z,101508.59
2023-08-15T18:50:28.109Z,101509.09
2023-08-15T18:52:54.660Z,101509.09
2023-08-15T18:55:21.246Z,101508.28
2023-08-15T18:57:47.877Z,101501.63
2023-08-15T19:00:17.163Z,101501.63
2023-08-15T19:02:45.010Z,101502.53
2023-08-15T19:05:11.743Z,101514.03
2023-08-15T19:07:38.314Z,101515.09
2023-08-15T19:10:05.602Z,101528.69
2023-08-15T19:12:32.207Z,101534.19
2023-08-15T19:14:58.778Z,101534.19
2023-08-15T19:17:25.362Z,101538.13
2023-08-15T19:19:51.944Z,101537.69
2023-08-15T19:22:18.526Z,101540.81
2023-08-15T19:24:45.656Z,101541.19
2023-08-15T19:27:12.431Z,101545.09
2023-08-15T19:29:39.042Z,101548.78
2023-08-15T19:32:05.945Z,101548.00
2023-08-15T19:34:32.548Z,101552.63
2023-08-15T19:36:59.212Z,101547.03
2023-08-15T19:39:25.747Z,101557.09
2023-08-15T19:41:52.424Z,101559.53
2023-08-15T19:44:19.154Z,101561.78
2023-08-15T19:46:45.757Z,101564.69
2023-08-15T19:49:12.342Z,101562.31
2023-08-15T19:51:38.912Z,101563.31
2023-08-15T19:54:05.752Z,101570.88
2023-08-15T19:56:32.379Z,101565.72
2023-08-15T19:58:58.912Z,101569.13
2023-08-15T20:01:25.648Z,101568.63
2023-08-15T20:03:52.338Z,101575.13
2023-08-15T20:06:18.943Z,101574.34
2023-08-15T20:08:45.553Z,101581.69
2023-08-15T20:11:12.166Z,101577.84
2023-08-15T20:13:38.874Z,101580.72
2023-08-15T20:16:05.537Z,101579.75
2023-08-15T20:18:32.190Z,101580.06
2023-08-15T20:20:59.264Z,101573.06
2023-08-15T20:23:25.919Z,101584.78
2023-08-15T20:25:52.611Z,101584.78
2023-08-15T20:28:19.277Z,101596.78
2023-08-15T20:30:46.073Z,101603.00
2023-08-15T20:33:12.705Z,101593.25
2023-08-15T20:35:39.370Z,101594.59
2023-08-15T20:38:06.049Z,101595.22
2023-08-15T20:40:32.865Z,101593.72
2023-08-15T20:42:59.564Z,101598.50
2023-08-15T20:45:26.461Z,101600.59
2023-08-15T20:47:53.165Z,101602.50
2023-08-15T20:50:21.096Z,101595.53
2023-08-15T20:52:47.676Z,101595.81
2023-08-15T20:55:14.306Z,101595.97
2023-08-15T20:57:41.433Z,101596.06
2023-08-15T21:00:08.541Z,101598.69
2023-08-15T21:02:35.261Z,101596.44
2023-08-15T21:05:02.895Z,101596.81
2023-08-15T21:07:29.551Z,101597.94
2023-08-15T21:09:56.270Z,101596.66
2023-08-15T21:12:23.173Z,101599.47
2023-08-15T21:14:50.028Z,101598.66
2023-08-15T21:17:16.824Z,101595.00
2023-08-15T21:19:43.477Z,101602.25
2023-08-15T21:22:10.074Z,101606.97
2023-08-15T21:24:36.739Z,101608.88
2023-08-15T21:27:03.418Z,101604.53
2023-08-15T21:29:30.026Z,101614.59
2023-08-15T21:31:56.611Z,101611.88
2023-08-15T21:34:23.274Z,101607.59
2023-08-15T21:36:49.888Z,101615.78
2023-08-15T21:39:16.581Z,101606.28
2023-08-15T21:41:43.261Z,101608.34
2023-08-15T21:44:09.846Z,101602.56
2023-08-15T21:46:36.539Z,101606.34
2023-08-15T21:49:03.352Z,101604.84
2023-08-15T21:51:29.937Z,101604.16
2023-08-15T21:53:56.609Z,101608.06
2023-08-15T21:56:23.209Z,101609.63
2023-08-15T21:58:49.784Z,101607.25
2023-08-15T22:01:16.414Z,101610.22
2023-08-15T22:03:43.177Z,101611.44
2023-08-15T22:06:09.828Z,101615.25
2023-08-15T22:08:36.428Z,101618.91
2023-08-15T22:11:03.025Z,101614.72
2023-08-15T22:13:29.634Z,101611.22
2023-08-15T22:15:56.256Z,101619.41
2023-08-15T22:18:23.273Z,101622.44
2023-08-15T22:20:50.214Z,101623.56
2023-08-15T22:23:16.937Z,101632.00
2023-08-15T22:25:47.033Z,101638.19
2023-08-15T22:28:13.815Z,101642.72
2023-08-15T22:30:40.401Z,101640.97
2023-08-15T22:33:07.011Z,101634.69
2023-08-15T22:35:41.295Z,101650.25
2023-08-15T22:38:08.102Z,101638.91
2023-08-15T22:40:35.100Z,101643.59
2023-08-15T22:43:01.717Z,101644.69
2023-08-15T22:45:28.496Z,101645.66
2023-08-15T22:47:55.230Z,101651.31
2023-08-15T22:50:21.802Z,101647.75
2023-08-15T22:52:48.428Z,101655.03
2023-08-15T22:55:15.051Z,101642.63
2023-08-15T22:57:41.652Z,101636.81
2023-08-15T23:00:08.837Z,101641.28
2023-08-15T23:02:35.567Z,101644.31
2023-08-15T23:05:02.161Z,101640.00
2023-08-15T23:07:28.745Z,101643.03
2023-08-15T23:09:55.331Z,101638.72
2023-08-15T23:12:21.891Z,101641.50
2023-08-15T23:14:48.520Z,101648.78
2023-08-15T23:17:15.134Z,101642.09
2023-08-15T23:19:41.739Z,101653.72
2023-08-15T23:22:08.290Z,101643.84
2023-08-15T23:24:34.881Z,101647.50
2023-08-15T23:27:01.592Z,101633.44
2023-08-15T23:29:28.370Z,101639.72
2023-08-15T23:31:55.076Z,101640.81
2023-08-15T23:34:21.624Z,101638.34
2023-08-15T23:36:48.212Z,101644.75
2023-08-15T23:39:14.871Z,101648.56
2023-08-15T23:41:41.408Z,101653.22
2023-08-15T23:44:08.014Z,101649.97
2023-08-15T23:46:34.667Z,101659.78
2023-08-15T23:49:01.283Z,101660.09
2023-08-15T23:51:27.883Z,101657.50
2023-08-15T23:53:54.500Z,101651.44
2023-08-15T23:56:21.109Z,101655.91
2023-08-15T23:58:47.711Z,101658.75
